Time;durP1;ratioP1;P1;durP2;ratioP2;P2;SDS_P1;SDS_P2;PMS_P1;PMS_P2;Temp;Humidity;BMP_temperature;BMP_pressure;BME280_temperature;BME280_humidity;BME280_pressure;Samples;Min_cycle;Max_cycle;Signal;HPM_P1;HPM_P2
2022/10/06 00:02:12;;;;;;;3.47;3.17;;;;;;;;;;5074571;28;20483;-58
2022/10/06 00:04:40;;;;;;;3.23;2.70;;;;;;;;;;5074538;28;20479;-58
2022/10/06 00:07:07;;;;;;;4.20;3.37;;;;;;;;;;5074454;28;20446;-58
2022/10/06 00:09:34;;;;;;;3.83;3.30;;;;;;;;;;5074367;28;20447;-58
2022/10/06 00:12:01;;;;;;;3.10;2.90;;;;;;;;;;5074242;28;20776;-58
2022/10/06 00:14:28;;;;;;;3.17;2.87;;;;;;;;;;5074599;28;20461;-58
2022/10/06 00:16:55;;;;;;;3.47;3.17;;;;;;;;;;5074327;28;20454;-58
2022/10/06 00:19:22;;;;;;;3.77;3.10;;;;;;;;;;5074236;28;20452;-58
2022/10/06 00:21:51;;;;;;;3.20;3.00;;;;;;;;;;5073859;28;20491;-58
2022/10/06 00:24:18;;;;;;;3.00;2.80;;;;;;;;;;5073933;28;20447;-58
2022/10/06 00:26:46;;;;;;;4.47;3.10;;;;;;;;;;5074183;28;20451;-58
2022/10/06 00:29:13;;;;;;;6.53;3.27;;;;;;;;;;5074000;28;20451;-58
2022/10/06 00:31:40;;;;;;;3.50;2.97;;;;;;;;;;5074003;28;20447;-57
2022/10/06 00:34:07;;;;;;;3.30;3.10;;;;;;;;;;5074069;28;20534;-58
2022/10/06 00:36:34;;;;;;;3.23;3.00;;;;;;;;;;5073791;28;20459;-57
2022/10/06 00:39:02;;;;;;;3.53;3.30;;;;;;;;;;5073823;28;20454;-58
2022/10/06 00:41:29;;;;;;;3.40;3.17;;;;;;;;;;5073829;28;20561;-58
2022/10/06 00:43:57;;;;;;;5.03;3.20;;;;;;;;;;5073829;28;20453;-58
2022/10/06 00:46:34;;;;;;;4.33;3.40;;;;;;;;;;5073702;28;20491;-57
2022/10/06 00:49:05;;;;;;;3.80;3.60;;;;;;;;;;5073542;28;20447;-58
2022/10/06 00:51:32;;;;;;;3.70;3.40;;;;;;;;;;5073630;28;20946;-58
2022/10/06 00:53:59;;;;;;;3.70;3.40;;;;;;;;;;5073615;28;20459;-57
2022/10/06 00:56:28;;;;;;;3.80;3.40;;;;;;;;;;5073563;28;20490;-58
2022/10/06 00:58:55;;;;;;;3.60;3.40;;;;;;;;;;5073431;28;20450;-58
2022/10/06 01:01:22;;;;;;;11.40;7.03;;;;;;;;;;5073224;28;20443;-58
2022/10/06 01:03:51;;;;;;;5.83;5.33;;;;;;;;;;5073168;28;20451;-58
2022/10/06 01:06:18;;;;;;;6.13;5.63;;;;;;;;;;5073382;28;20539;-58
2022/10/06 01:08:45;;;;;;;4.40;3.40;;;;;;;;;;5073485;28;20451;-58
2022/10/06 01:11:13;;;;;;;3.70;3.40;;;;;;;;;;5073287;28;20546;-58
2022/10/06 01:13:43;;;;;;;5.13;4.83;;;;;;;;;;5073219;28;20800;-58
2022/10/06 01:16:13;;;;;;;7.50;6.90;;;;;;;;;;5073125;28;20517;-58
2022/10/06 01:18:41;;;;;;;4.43;4.13;;;;;;;;;;5073021;28;20458;-58
2022/10/06 01:21:11;;;;;;;4.80;4.40;;;;;;;;;;5073178;28;20451;-58
2022/10/06 01:23:39;;;;;;;3.17;2.87;;;;;;;;;;5072854;28;20486;-58
2022/10/06 01:26:09;;;;;;;4.20;3.80;;;;;;;;;;5073025;28;20443;-58
2022/10/06 01:28:37;;;;;;;3.70;3.40;;;;;;;;;;5072928;28;20458;-58
2022/10/06 01:31:04;;;;;;;4.53;3.50;;;;;;;;;;5072891;28;20473;-58
2022/10/06 01:33:31;;;;;;;3.30;3.10;;;;;;;;;;5073043;28;20455;-58
2022/10/06 01:35:57;;;;;;;4.00;3.60;;;;;;;;;;5072952;28;20512;-58
2022/10/06 01:38:24;;;;;;;5.97;3.13;;;;;;;;;;5072894;28;20871;-58
2022/10/06 01:40:53;;;;;;;2.90;2.70;;;;;;;;;;5072963;28;20947;-58
2022/10/06 01:43:20;;;;;;;4.53;4.00;;;;;;;;;;5072710;28;20924;-59
2022/10/06 01:45:52;;;;;;;3.43;3.07;;;;;;;;;;5072971;28;20443;-58
2022/10/06 01:48:19;;;;;;;7.83;5.93;;;;;;;;;;5072446;28;20865;-59
2022/10/06 01:50:46;;;;;;;3.80;3.50;;;;;;;;;;5072669;28;20934;-58
2022/10/06 01:53:13;;;;;;;3.90;3.30;;;;;;;;;;5072863;28;20457;-59
2022/10/06 01:55:40;;;;;;;4.23;3.83;;;;;;;;;;5072637;28;20462;-58
2022/10/06 01:58:08;;;;;;;3.90;3.60;;;;;;;;;;5072545;28;20466;-58
2022/10/06 02:00:35;;;;;;;3.20;3.10;;;;;;;;;;5072797;28;20447;-58
2022/10/06 02:03:02;;;;;;;2.93;2.80;;;;;;;;;;5072666;28;20816;-58
2022/10/06 02:05:29;;;;;;;3.03;2.93;;;;;;;;;;5072689;28;20447;-58
2022/10/06 02:07:56;;;;;;;4.53;3.23;;;;;;;;;;5072607;28;20475;-58
2022/10/06 02:10:23;;;;;;;3.03;2.83;;;;;;;;;;5072540;28;20538;-59
2022/10/06 02:12:50;;;;;;;5.00;3.17;;;;;;;;;;5072511;28;20539;-58
2022/10/06 02:15:19;;;;;;;3.00;2.73;;;;;;;;;;5072643;28;20444;-58
2022/10/06 02:17:46;;;;;;;4.00;3.10;;;;;;;;;;5072596;28;20469;-58
2022/10/06 02:20:13;;;;;;;3.40;3.13;;;;;;;;;;5072456;28;20453;-58
2022/10/06 02:22:42;;;;;;;3.20;3.00;;;;;;;;;;5072201;28;20857;-58
2022/10/06 02:25:09;;;;;;;3.40;3.20;;;;;;;;;;5072312;28;20454;-58
2022/10/06 02:27:36;;;;;;;3.00;2.63;;;;;;;;;;5072534;28;20454;-58
2022/10/06 02:30:04;;;;;;;3.40;3.20;;;;;;;;;;5072500;28;20935;-58
2022/10/06 02:32:34;;;;;;;3.17;2.87;;;;;;;;;;5072419;28;20451;-58
2022/10/06 02:35:02;;;;;;;3.23;3.00;;;;;;;;;;5072362;28;20454;-58
2022/10/06 02:37:29;;;;;;;3.83;3.10;;;;;;;;;;5072210;28;20451;-58
2022/10/06 02:39:56;;;;;;;3.23;3.00;;;;;;;;;;5072488;28;20451;-58
2022/10/06 02:42:23;;;;;;;3.40;3.20;;;;;;;;;;5072274;28;20487;-59
2022/10/06 02:44:51;;;;;;;4.70;3.03;;;;;;;;;;5072344;28;20854;-59
2022/10/06 02:47:18;;;;;;;3.00;2.80;;;;;;;;;;5072320;28;20497;-58
2022/10/06 02:49:46;;;;;;;3.57;3.27;;;;;;;;;;5072210;28;20538;-59
2022/10/06 02:52:14;;;;;;;13.03;3.50;;;;;;;;;;5072047;28;20490;-58
2022/10/06 02:54:41;;;;;;;3.10;2.90;;;;;;;;;;5072282;28;20811;-58
2022/10/06 02:57:08;;;;;;;3.20;3.00;;;;;;;;;;5072285;28;20899;-58
2022/10/06 02:59:35;;;;;;;3.13;2.83;;;;;;;;;;5072784;28;20490;-58
2022/10/06 03:02:02;;;;;;;3.27;3.00;;;;;;;;;;5075533;28;20471;-58
2022/10/06 03:04:29;;;;;;;4.03;2.97;;;;;;;;;;5075593;28;20539;-58
2022/10/06 03:06:58;;;;;;;3.27;3.07;;;;;;;;;;5075488;28;20451;-58
2022/10/06 03:09:25;;;;;;;6.80;2.97;;;;;;;;;;5075640;28;20814;-58
2022/10/06 03:11:52;;;;;;;3.63;2.73;;;;;;;;;;5075409;28;20982;-58
2022/10/06 03:14:18;;;;;;;3.40;3.00;;;;;;;;;;5075407;28;20486;-58
2022/10/06 03:16:45;;;;;;;3.17;2.90;;;;;;;;;;5075420;28;20443;-58
2022/10/06 03:19:12;;;;;;;3.83;3.60;;;;;;;;;;5075230;28;20443;-58
2022/10/06 03:21:41;;;;;;;3.63;2.97;;;;;;;;;;5075015;28;20478;-58
2022/10/06 03:24:09;;;;;;;3.27;3.07;;;;;;;;;;5075354;28;20489;-58
2022/10/06 03:26:37;;;;;;;3.50;3.30;;;;;;;;;;5075291;28;20547;-58
2022/10/06 03:29:05;;;;;;;3.43;3.13;;;;;;;;;;5075190;28;20451;-58
2022/10/06 03:31:32;;;;;;;2.73;2.60;;;;;;;;;;5075027;28;20496;-59
2022/10/06 03:33:58;;;;;;;3.93;3.63;;;;;;;;;;5074893;28;20806;-58
2022/10/06 03:36:26;;;;;;;4.37;3.50;;;;;;;;;;5075108;28;20451;-58
2022/10/06 03:38:54;;;;;;;3.23;2.90;;;;;;;;;;5074988;28;20473;-58
2022/10/06 03:41:23;;;;;;;5.03;3.80;;;;;;;;;;5075037;28;20452;-59
2022/10/06 03:43:50;;;;;;;3.33;3.13;;;;;;;;;;5074848;28;20699;-59
2022/10/06 03:46:18;;;;;;;3.10;2.90;;;;;;;;;;5074776;28;20813;-58
2022/10/06 03:48:45;;;;;;;4.20;2.90;;;;;;;;;;5074972;28;20480;-58
2022/10/06 03:51:13;;;;;;;4.00;3.17;;;;;;;;;;5074838;28;20457;-58
2022/10/06 03:53:41;;;;;;;3.63;3.33;;;;;;;;;;5074732;28;20454;-58
2022/10/06 03:56:10;;;;;;;3.20;2.93;;;;;;;;;;5074714;28;20454;-58
2022/10/06 03:58:39;;;;;;;3.20;2.70;;;;;;;;;;5074583;28;20448;-58
2022/10/06 04:01:07;;;;;;;3.00;2.70;;;;;;;;;;5074850;28;20806;-58
2022/10/06 04:03:35;;;;;;;7.70;3.63;;;;;;;;;;5074267;28;20998;-58
2022/10/06 04:06:04;;;;;;;3.80;3.50;;;;;;;;;;5074431;28;20453;-58
2022/10/06 04:08:32;;;;;;;4.93;2.87;;;;;;;;;;5074382;28;20452;-58
2022/10/06 04:11:05;;;;;;;4.63;3.30;;;;;;;;;;5073832;28;20450;-58
2022/10/06 04:13:32;;;;;;;3.03;2.83;;;;;;;;;;5074168;28;20551;-58
2022/10/06 04:16:09;;;;;;;4.33;4.03;;;;;;;;;;5074395;28;20454;-58
2022/10/06 04:18:37;;;;;;;3.60;3.17;;;;;;;;;;5074283;28;20447;-58
2022/10/06 04:21:04;;;;;;;3.50;3.30;;;;;;;;;;5074045;28;20509;-58
2022/10/06 04:23:31;;;;;;;3.20;2.90;;;;;;;;;;5073722;28;20491;-58
2022/10/06 04:26:01;;;;;;;3.30;3.10;;;;;;;;;;5073943;28;20451;-58
2022/10/06 04:28:28;;;;;;;3.33;3.13;;;;;;;;;;5074072;28;20454;-58
2022/10/06 04:30:56;;;;;;;3.07;2.87;;;;;;;;;;5074016;28;20461;-58
2022/10/06 04:33:24;;;;;;;2.97;2.87;;;;;;;;;;5073927;28;20478;-58
2022/10/06 04:35:57;;;;;;;3.23;3.03;;;;;;;;;;5073800;28;20454;-58
2022/10/06 04:38:23;;;;;;;5.50;2.93;;;;;;;;;;5073697;28;20451;-58
2022/10/06 04:40:50;;;;;;;4.90;2.93;;;;;;;;;;5073877;28;20454;-58
2022/10/06 04:43:18;;;;;;;3.90;2.43;;;;;;;;;;5073677;28;20483;-58
2022/10/06 04:45:44;;;;;;;2.40;1.40;;;;;;;;;;5073590;28;20447;-59
2022/10/06 04:48:11;;;;;;;1.97;1.80;;;;;;;;;;5073567;28;20478;-58
2022/10/06 04:50:40;;;;;;;1.77;1.60;;;;;;;;;;5073390;28;20448;-58
2022/10/06 04:53:07;;;;;;;1.30;1.13;;;;;;;;;;5073373;28;20453;-58
2022/10/06 04:55:33;;;;;;;1.20;1.10;;;;;;;;;;5073506;28;20454;-58
2022/10/06 04:58:00;;;;;;;1.10;0.90;;;;;;;;;;5073480;28;20810;-58
2022/10/06 05:00:27;;;;;;;1.13;0.87;;;;;;;;;;5073442;28;20447;-58
2022/10/06 05:02:55;;;;;;;1.27;1.00;;;;;;;;;;5073197;28;20475;-58
2022/10/06 05:05:22;;;;;;;2.07;1.10;;;;;;;;;;5073081;28;20458;-59
2022/10/06 05:07:50;;;;;;;1.10;1.00;;;;;;;;;;5073148;28;20544;-58
2022/10/06 05:10:17;;;;;;;2.70;1.00;;;;;;;;;;5073380;28;20447;-58
2022/10/06 05:12:44;;;;;;;0.70;0.70;;;;;;;;;;5073179;28;20460;-59
2022/10/06 05:15:11;;;;;;;0.80;0.80;;;;;;;;;;5073124;28;20546;-59
2022/10/06 05:17:38;;;;;;;1.77;0.90;;;;;;;;;;5073065;28;20447;-59
2022/10/06 05:20:06;;;;;;;0.93;0.87;;;;;;;;;;5072902;28;20448;-59
2022/10/06 05:22:33;;;;;;;1.53;0.87;;;;;;;;;;5071956;28;20511;-58
2022/10/06 05:25:01;;;;;;;1.10;0.97;;;;;;;;;;5073009;28;20478;-59
2022/10/06 05:27:28;;;;;;;1.00;0.90;;;;;;;;;;5072839;28;20450;-58
2022/10/06 05:29:55;;;;;;;1.80;0.97;;;;;;;;;;5072820;28;20443;-58
2022/10/06 05:32:22;;;;;;;1.00;0.90;;;;;;;;;;5072713;28;20471;-58
2022/10/06 05:34:49;;;;;;;1.83;1.23;;;;;;;;;;5072800;28;20814;-59
2022/10/06 05:37:16;;;;;;;1.10;0.90;;;;;;;;;;5072924;28;20534;-59
2022/10/06 05:39:43;;;;;;;1.30;1.00;;;;;;;;;;5072861;28;20448;-59
2022/10/06 05:42:11;;;;;;;3.07;0.90;;;;;;;;;;5072842;28;20446;-59
2022/10/06 05:44:38;;;;;;;1.60;0.93;;;;;;;;;;5072485;28;20494;-61
2022/10/06 05:47:05;;;;;;;2.40;0.93;;;;;;;;;;5072474;28;20452;-59
2022/10/06 05:49:32;;;;;;;0.80;0.80;;;;;;;;;;5072752;28;20443;-59
2022/10/06 05:51:59;;;;;;;1.03;0.80;;;;;;;;;;5072809;28;20554;-58
2022/10/06 05:54:26;;;;;;;1.77;0.90;;;;;;;;;;5072675;28;20453;-59
2022/10/06 05:56:53;;;;;;;1.57;0.80;;;;;;;;;;5072975;28;20840;-59
2022/10/06 05:59:21;;;;;;;0.80;0.80;;;;;;;;;;5072591;28;20450;-59
2022/10/06 06:01:48;;;;;;;1.10;0.77;;;;;;;;;;5072353;28;20943;-59
2022/10/06 06:04:15;;;;;;;2.27;0.90;;;;;;;;;;5072582;28;20483;-59
2022/10/06 06:06:43;;;;;;;1.57;0.70;;;;;;;;;;5072605;28;20447;-58
2022/10/06 06:09:11;;;;;;;2.57;1.00;;;;;;;;;;5072587;28;20447;-59
2022/10/06 06:11:39;;;;;;;6.37;0.80;;;;;;;;;;5072577;28;20443;-59
2022/10/06 06:14:07;;;;;;;0.80;0.73;;;;;;;;;;5072362;28;20448;-59
2022/10/06 06:16:37;;;;;;;1.00;0.80;;;;;;;;;;5072340;28;20970;-59
2022/10/06 06:19:04;;;;;;;3.67;0.90;;;;;;;;;;5072436;28;20454;-59
2022/10/06 06:21:31;;;;;;;3.77;0.70;;;;;;;;;;5072335;28;20447;-59
2022/10/06 06:23:58;;;;;;;1.43;1.33;;;;;;;;;;5072362;28;20953;-59
2022/10/06 06:26:25;;;;;;;1.40;0.80;;;;;;;;;;5072131;28;20553;-59
2022/10/06 06:28:53;;;;;;;1.00;0.50;;;;;;;;;;5072395;28;20864;-59
2022/10/06 06:31:21;;;;;;;2.10;0.80;;;;;;;;;;5072349;28;20451;-59
2022/10/06 06:33:51;;;;;;;2.50;0.70;;;;;;;;;;5073404;28;20542;-59
2022/10/06 06:36:19;;;;;;;0.77;0.63;;;;;;;;;;5076183;28;20546;-59
2022/10/06 06:38:48;;;;;;;0.73;0.60;;;;;;;;;;5075719;28;20451;-59
2022/10/06 06:41:16;;;;;;;2.00;0.70;;;;;;;;;;5075653;28;20450;-59
2022/10/06 06:43:43;;;;;;;2.10;0.87;;;;;;;;;;5075680;28;20487;-59
2022/10/06 06:46:10;;;;;;;1.00;0.60;;;;;;;;;;5075994;28;20542;-60
2022/10/06 06:48:37;;;;;;;2.37;0.90;;;;;;;;;;5075822;28;20455;-59
2022/10/06 06:51:06;;;;;;;1.00;0.80;;;;;;;;;;5075630;28;20972;-59
2022/10/06 06:53:33;;;;;;;3.77;0.90;;;;;;;;;;5075577;28;20451;-59
2022/10/06 06:56:00;;;;;;;1.40;0.77;;;;;;;;;;5075524;28;20443;-59
2022/10/06 06:58:27;;;;;;;2.33;0.70;;;;;;;;;;5075799;28;20443;-60
2022/10/06 07:00:54;;;;;;;2.07;0.70;;;;;;;;;;5075605;28;20534;-59
2022/10/06 07:03:21;;;;;;;4.20;0.73;;;;;;;;;;5075553;28;20506;-59
2022/10/06 07:05:48;;;;;;;2.93;0.87;;;;;;;;;;5075541;28;20804;-58
2022/10/06 07:08:19;;;;;;;1.30;0.87;;;;;;;;;;5075363;28;20479;-59
2022/10/06 07:10:47;;;;;;;1.20;0.77;;;;;;;;;;5075403;28;20486;-59
2022/10/06 07:13:15;;;;;;;1.27;0.63;;;;;;;;;;5075432;28;20447;-59
2022/10/06 07:26:43;;;;;;;1.90;0.70;;;;;;;;;;5075097;28;20944;-59
2022/10/06 07:29:10;;;;;;;4.20;0.83;;;;;;;;;;5075021;28;20862;-59
2022/10/06 07:31:38;;;;;;;1.20;0.80;;;;;;;;;;5075174;28;20450;-59
2022/10/06 07:34:05;;;;;;;2.73;1.30;;;;;;;;;;5075114;28;20539;-59
2022/10/06 07:36:32;;;;;;;2.10;0.90;;;;;;;;;;5075091;28;20474;-60
2022/10/06 07:39:00;;;;;;;1.40;1.00;;;;;;;;;;5075002;28;20443;-59
2022/10/06 07:41:27;;;;;;;4.00;0.90;;;;;;;;;;5074856;28;20532;-59
2022/10/06 07:43:54;;;;;;;1.10;1.00;;;;;;;;;;5074519;28;20479;-59
2022/10/06 07:46:21;;;;;;;1.30;0.90;;;;;;;;;;5074034;28;20447;-60
2022/10/06 07:48:48;;;;;;;1.87;0.90;;;;;;;;;;5074669;28;20448;-58
2022/10/06 07:51:16;;;;;;;3.53;1.03;;;;;;;;;;5074698;28;20555;-59
2022/10/06 07:53:45;;;;;;;2.27;0.80;;;;;;;;;;5074706;28;20461;-59
2022/10/06 07:56:14;;;;;;;2.60;0.93;;;;;;;;;;5074633;28;20452;-59
2022/10/06 07:58:43;;;;;;;8.97;1.10;;;;;;;;;;5074489;28;20957;-59
2022/10/06 08:01:11;;;;;;;2.70;1.03;;;;;;;;;;5074545;28;20448;-59
2022/10/06 08:03:38;;;;;;;2.07;0.97;;;;;;;;;;5074352;28;20467;-59
2022/10/06 08:06:05;;;;;;;2.50;0.93;;;;;;;;;;5074506;28;20450;-59
2022/10/06 08:08:35;;;;;;;2.77;1.10;;;;;;;;;;5074409;28;20493;-59
2022/10/06 08:11:03;;;;;;;1.57;1.17;;;;;;;;;;5074309;28;20444;-59
2022/10/06 08:13:31;;;;;;;2.07;0.90;;;;;;;;;;5074472;28;20453;-59
2022/10/06 08:16:03;;;;;;;2.17;0.97;;;;;;;;;;5074351;28;20443;-59
2022/10/06 08:18:31;;;;;;;2.00;1.23;;;;;;;;;;5074266;28;20451;-59
2022/10/06 08:20:58;;;;;;;2.50;0.93;;;;;;;;;;5074068;28;20459;-59
2022/10/06 08:23:25;;;;;;;2.43;1.40;;;;;;;;;;5073770;28;20578;-59
2022/10/06 08:25:52;;;;;;;1.57;1.07;;;;;;;;;;5074288;28;20443;-59
2022/10/06 08:28:21;;;;;;;2.47;1.00;;;;;;;;;;5074322;28;20473;-58
2022/10/06 08:30:50;;;;;;;2.83;0.97;;;;;;;;;;5074174;28;20457;-58
2022/10/06 08:33:17;;;;;;;3.27;1.27;;;;;;;;;;5073887;28;20451;-59
2022/10/06 08:35:44;;;;;;;3.70;0.90;;;;;;;;;;5073897;28;20451;-58
2022/10/06 08:38:11;;;;;;;1.83;1.00;;;;;;;;;;5073478;28;20454;-58
2022/10/06 08:40:38;;;;;;;2.17;0.97;;;;;;;;;;5073806;28;20470;-58
2022/10/06 08:43:13;;;;;;;6.00;1.17;;;;;;;;;;5073634;28;20880;-58
2022/10/06 08:45:43;;;;;;;1.93;1.03;;;;;;;;;;5073471;28;20544;-59
2022/10/06 08:48:13;;;;;;;4.67;1.07;;;;;;;;;;5073420;28;20447;-59
2022/10/06 08:50:51;;;;;;;2.00;1.10;;;;;;;;;;5073274;28;20815;-60
2022/10/06 08:53:23;;;;;;;4.67;1.13;;;;;;;;;;5073581;28;20545;-59
2022/10/06 08:55:52;;;;;;;1.90;0.80;;;;;;;;;;5073445;28;20892;-59
2022/10/06 08:58:28;;;;;;;3.13;0.90;;;;;;;;;;5073399;28;20538;-58
2022/10/06 09:00:55;;;;;;;4.37;1.20;;;;;;;;;;5073200;28;20502;-59
2022/10/06 09:03:27;;;;;;;4.60;1.33;;;;;;;;;;5073493;28;20621;-59
2022/10/06 09:05:57;;;;;;;5.13;1.00;;;;;;;;;;5073346;28;20479;-59
2022/10/06 09:08:34;;;;;;;2.93;1.13;;;;;;;;;;5073189;28;20542;-59
2022/10/06 09:11:07;;;;;;;4.93;1.10;;;;;;;;;;5073144;28;20545;-59
2022/10/06 09:13:36;;;;;;;2.10;1.07;;;;;;;;;;5073055;28;20554;-59
2022/10/06 09:16:06;;;;;;;2.70;1.20;;;;;;;;;;5072966;28;21013;-59
2022/10/06 09:18:37;;;;;;;1.53;0.90;;;;;;;;;;5073200;28;20439;-59
2022/10/06 09:21:04;;;;;;;1.50;0.93;;;;;;;;;;5073094;28;20443;-59
2022/10/06 09:23:48;;;;;;;2.00;0.93;;;;;;;;;;5057453;28;20475;-59
2022/10/06 09:26:16;;;;;;;3.00;0.87;;;;;;;;;;5053130;28;20455;-59
2022/10/06 09:28:45;;;;;;;2.30;0.80;;;;;;;;;;5053011;28;20486;-59
2022/10/06 09:31:19;;;;;;;2.70;1.00;;;;;;;;;;5052753;28;20785;-59
2022/10/06 09:33:47;;;;;;;1.70;1.20;;;;;;;;;;5052826;28;20448;-59
2022/10/06 09:36:14;;;;;;;3.63;0.90;;;;;;;;;;5052731;28;20822;-59
2022/10/06 09:38:51;;;;;;;1.70;1.00;;;;;;;;;;5052582;28;20809;-59
2022/10/06 09:41:18;;;;;;;3.93;1.20;;;;;;;;;;5052716;28;20856;-60
2022/10/06 09:43:52;;;;;;;5.07;1.17;;;;;;;;;;5052577;28;20531;-58
2022/10/06 09:46:20;;;;;;;3.40;0.80;;;;;;;;;;5052620;28;20452;-59
2022/10/06 09:48:48;;;;;;;3.40;1.30;;;;;;;;;;5052468;28;20475;-59
2022/10/06 09:51:16;;;;;;;3.93;1.30;;;;;;;;;;5052432;28;20448;-59
2022/10/06 09:53:44;;;;;;;5.83;1.33;;;;;;;;;;5052473;28;20966;-59
2022/10/06 09:56:17;;;;;;;4.30;1.37;;;;;;;;;;5052621;28;20456;-59
2022/10/06 09:58:55;;;;;;;3.43;1.00;;;;;;;;;;5052518;28;20510;-59
2022/10/06 10:01:23;;;;;;;3.33;1.40;;;;;;;;;;5052466;28;20478;-59
2022/10/06 10:03:52;;;;;;;3.43;1.27;;;;;;;;;;5052445;28;20810;-60
2022/10/06 10:06:24;;;;;;;2.47;1.10;;;;;;;;;;5052628;28;20449;-59
2022/10/06 10:08:50;;;;;;;3.47;1.00;;;;;;;;;;5053531;28;20539;-58
2022/10/06 10:14:16;;;;;;;2.83;1.40;;;;;;;;;;5056416;28;20459;-59
2022/10/06 10:16:43;;;;;;;4.20;1.23;;;;;;;;;;5056659;28;20494;-59
2022/10/06 10:19:21;;;;;;;2.47;1.10;;;;;;;;;;5056500;28;20451;-59
2022/10/06 10:21:48;;;;;;;1.97;1.17;;;;;;;;;;5056410;28;20448;-59
2022/10/06 10:24:20;;;;;;;3.40;1.43;;;;;;;;;;5063837;28;20816;-59
2022/10/06 10:26:52;;;;;;;3.27;1.63;;;;;;;;;;5076244;28;20808;-59
2022/10/06 10:29:39;;;;;;;3.13;1.27;;;;;;;;;;5076373;28;20868;-58
2022/10/06 10:32:10;;;;;;;1.17;1.07;;;;;;;;;;5076229;28;20538;-59
2022/10/06 10:34:57;;;;;;;4.27;1.43;;;;;;;;;;5076106;28;20447;-60
2022/10/06 10:37:29;;;;;;;3.90;1.13;;;;;;;;;;5076129;28;20487;-59
2022/10/06 10:39:58;;;;;;;3.30;1.13;;;;;;;;;;5075968;28;20888;-59
2022/10/06 10:42:28;;;;;;;3.90;1.07;;;;;;;;;;5075886;28;20542;-59
2022/10/06 10:44:58;;;;;;;3.80;1.10;;;;;;;;;;5075880;28;20895;-59
2022/10/06 10:47:26;;;;;;;4.47;1.40;;;;;;;;;;5075795;28;20447;-58
2022/10/06 10:49:57;;;;;;;2.67;1.00;;;;;;;;;;5075807;28;20513;-59
2022/10/06 10:52:29;;;;;;;1.20;0.83;;;;;;;;;;5075885;28;20862;-59
2022/10/06 10:55:02;;;;;;;1.70;1.17;;;;;;;;;;5075817;28;20456;-59
2022/10/06 10:57:33;;;;;;;2.53;1.10;;;;;;;;;;5075567;28;20451;-59
2022/10/06 11:00:02;;;;;;;3.27;1.10;;;;;;;;;;5075528;28;20505;-59
2022/10/06 11:02:32;;;;;;;2.30;1.03;;;;;;;;;;5075678;28;20860;-59
2022/10/06 11:05:03;;;;;;;3.47;1.10;;;;;;;;;;5075430;28;20985;-59
2022/10/06 11:07:33;;;;;;;3.50;1.33;;;;;;;;;;5075559;28;20533;-59
2022/10/06 11:10:03;;;;;;;3.90;1.13;;;;;;;;;;5075416;28;20443;-59
2022/10/06 11:12:40;;;;;;;4.17;1.30;;;;;;;;;;5075623;28;20546;-59
2022/10/06 11:15:12;;;;;;;4.17;1.10;;;;;;;;;;5075553;28;20482;-59
2022/10/06 11:17:43;;;;;;;3.83;0.93;;;;;;;;;;5075402;28;20479;-58
2022/10/06 11:20:18;;;;;;;5.60;1.27;;;;;;;;;;5074030;28;20448;-59
2022/10/06 11:22:50;;;;;;;3.80;1.13;;;;;;;;;;5075065;28;20451;-58
2022/10/06 11:25:22;;;;;;;3.00;0.87;;;;;;;;;;5074850;28;20490;-59
2022/10/06 11:27:52;;;;;;;2.07;0.87;;;;;;;;;;5075296;28;20456;-58
2022/10/06 11:30:25;;;;;;;3.50;1.03;;;;;;;;;;5075067;28;20486;-59
2022/10/06 11:33:00;;;;;;;2.60;1.13;;;;;;;;;;5074975;28;20958;-59
2022/10/06 11:35:28;;;;;;;2.93;0.83;;;;;;;;;;5075180;28;20534;-59
2022/10/06 11:38:01;;;;;;;2.20;0.93;;;;;;;;;;5074991;28;20447;-59
2022/10/06 11:40:32;;;;;;;1.57;1.00;;;;;;;;;;5075026;28;20454;-58
2022/10/06 11:43:02;;;;;;;2.43;1.20;;;;;;;;;;5074881;28;20454;-58
2022/10/06 11:45:30;;;;;;;1.87;0.90;;;;;;;;;;5074696;28;20467;-59
2022/10/06 11:48:06;;;;;;;2.60;1.33;;;;;;;;;;5074976;28;20486;-59
2022/10/06 11:50:35;;;;;;;3.67;1.63;;;;;;;;;;5074852;28;20783;-59
2022/10/06 11:53:04;;;;;;;3.70;1.30;;;;;;;;;;5074709;28;20447;-58
2022/10/06 11:55:32;;;;;;;6.57;1.63;;;;;;;;;;5074586;28;20853;-59
2022/10/06 11:58:13;;;;;;;7.30;1.10;;;;;;;;;;5074490;28;20465;-58
2022/10/06 12:00:43;;;;;;;4.30;1.17;;;;;;;;;;5074651;28;20798;-59
2022/10/06 12:03:29;;;;;;;9.63;1.80;;;;;;;;;;5074589;28;20466;-59
2022/10/06 12:05:56;;;;;;;4.40;1.00;;;;;;;;;;5074258;28;20483;-59
2022/10/06 12:08:36;;;;;;;1.87;1.10;;;;;;;;;;5074141;28;20876;-59
2022/10/06 12:11:04;;;;;;;2.23;1.20;;;;;;;;;;5074414;28;20501;-59
2022/10/06 12:13:34;;;;;;;7.70;1.40;;;;;;;;;;5074301;28;20443;-59
2022/10/06 12:16:19;;;;;;;3.30;2.27;;;;;;;;;;5074153;28;20448;-59
2022/10/06 12:18:50;;;;;;;6.37;1.50;;;;;;;;;;5074080;28;20454;-59
2022/10/06 12:21:23;;;;;;;3.40;1.37;;;;;;;;;;5074336;28;20456;-59
2022/10/06 12:23:57;;;;;;;3.27;1.53;;;;;;;;;;5074024;28;20475;-59
2022/10/06 12:26:30;;;;;;;1.63;1.10;;;;;;;;;;5073972;28;20834;-60
2022/10/06 12:29:00;;;;;;;2.90;1.10;;;;;;;;;;5074003;28;20458;-59
2022/10/06 12:31:37;;;;;;;3.43;0.90;;;;;;;;;;5073472;28;20456;-59
2022/10/06 12:34:09;;;;;;;5.80;1.60;;;;;;;;;;5073707;28;20466;-59
2022/10/06 12:36:38;;;;;;;5.17;1.60;;;;;;;;;;5073721;28;20810;-59
2022/10/06 12:39:20;;;;;;;2.17;0.90;;;;;;;;;;5073705;28;20455;-59
2022/10/06 12:41:54;;;;;;;2.70;1.43;;;;;;;;;;5073583;28;20546;-59
2022/10/06 12:44:22;;;;;;;6.63;1.30;;;;;;;;;;5073607;28;20450;-59
2022/10/06 12:46:50;;;;;;;2.90;1.20;;;;;;;;;;5073613;28;20483;-59
2022/10/06 12:49:30;;;;;;;3.80;1.00;;;;;;;;;;5073373;28;20478;-59
2022/10/06 12:51:58;;;;;;;4.60;1.33;;;;;;;;;;5073462;28;20841;-60
2022/10/06 12:54:29;;;;;;;4.13;1.00;;;;;;;;;;5073239;28;20453;-59
2022/10/06 12:56:58;;;;;;;3.33;1.17;;;;;;;;;;5073475;28;20447;-59
2022/10/06 12:59:26;;;;;;;6.53;1.57;;;;;;;;;;5073404;28;20452;-59
2022/10/06 13:01:54;;;;;;;3.43;1.37;;;;;;;;;;5073356;28;20806;-59
2022/10/06 13:04:31;;;;;;;3.67;1.30;;;;;;;;;;5072950;28;20490;-59
2022/10/06 13:06:58;;;;;;;4.13;1.23;;;;;;;;;;5072950;28;20475;-59
2022/10/06 13:09:26;;;;;;;1.80;1.40;;;;;;;;;;5073232;28;20451;-59
2022/10/06 13:11:53;;;;;;;3.90;1.30;;;;;;;;;;5073222;28;20548;-59
2022/10/06 13:14:20;;;;;;;4.53;1.20;;;;;;;;;;5073140;28;20483;-59
2022/10/06 13:16:48;;;;;;;2.93;1.30;;;;;;;;;;5073041;28;21027;-59
2022/10/06 13:19:17;;;;;;;5.80;1.63;;;;;;;;;;5073015;28;20490;-59
2022/10/06 13:21:44;;;;;;;1.30;0.90;;;;;;;;;;5073375;28;20454;-59
2022/10/06 13:24:12;;;;;;;4.00;1.20;;;;;;;;;;5072810;28;20624;-58
2022/10/06 13:26:41;;;;;;;3.23;1.30;;;;;;;;;;5072862;28;20832;-59
2022/10/06 13:29:17;;;;;;;2.50;0.90;;;;;;;;;;5072873;28;20447;-59
2022/10/06 13:31:46;;;;;;;7.10;1.67;;;;;;;;;;5072770;28;20451;-59
2022/10/06 13:34:15;;;;;;;5.23;1.53;;;;;;;;;;5073002;28;20462;-59
2022/10/06 13:36:43;;;;;;;1.90;1.00;;;;;;;;;;5072867;28;20546;-59
2022/10/06 13:39:12;;;;;;;2.10;1.20;;;;;;;;;;5072856;28;20451;-59
2022/10/06 13:41:44;;;;;;;1.43;0.97;;;;;;;;;;5072782;28;20547;-59
2022/10/06 13:44:25;;;;;;;4.10;1.20;;;;;;;;;;5071888;28;20780;-59
2022/10/06 13:46:53;;;;;;;3.53;1.20;;;;;;;;;;5072718;28;20489;-59
2022/10/06 13:49:22;;;;;;;4.03;1.20;;;;;;;;;;5072620;28;20448;-59
2022/10/06 13:51:51;;;;;;;3.17;1.33;;;;;;;;;;5072615;28;20571;-59
2022/10/06 13:54:22;;;;;;;6.77;1.30;;;;;;;;;;5072691;28;20552;-59
2022/10/06 13:56:52;;;;;;;3.43;1.20;;;;;;;;;;5072433;28;20459;-59
2022/10/06 13:59:32;;;;;;;3.07;1.00;;;;;;;;;;5072576;28;20454;-59
2022/10/06 14:02:01;;;;;;;3.97;0.80;;;;;;;;;;5072372;28;20453;-59
2022/10/06 14:04:29;;;;;;;1.80;1.03;;;;;;;;;;5072396;28;20451;-59
2022/10/06 14:06:58;;;;;;;4.37;1.33;;;;;;;;;;5072403;28;20890;-59
2022/10/06 14:09:26;;;;;;;2.10;0.90;;;;;;;;;;5072378;28;20470;-59
2022/10/06 14:12:02;;;;;;;1.83;1.30;;;;;;;;;;5072578;28;20466;-59
2022/10/06 14:14:29;;;;;;;2.60;0.97;;;;;;;;;;5072575;28;20457;-59
2022/10/06 14:16:57;;;;;;;3.50;1.30;;;;;;;;;;5072486;28;20443;-59
2022/10/06 14:19:30;;;;;;;4.07;1.17;;;;;;;;;;5072433;28;20452;-59
2022/10/06 14:21:57;;;;;;;1.97;1.10;;;;;;;;;;5072284;28;20462;-59
2022/10/06 14:24:27;;;;;;;4.30;1.00;;;;;;;;;;5072250;28;20487;-59
2022/10/06 14:27:00;;;;;;;1.20;0.90;;;;;;;;;;5072305;28;20987;-59
2022/10/06 14:29:27;;;;;;;2.90;1.13;;;;;;;;;;5072401;28;20451;-59
2022/10/06 14:31:54;;;;;;;3.63;1.50;;;;;;;;;;5072364;28;20803;-59
2022/10/06 14:34:21;;;;;;;2.43;1.10;;;;;;;;;;5072033;28;20890;-59
2022/10/06 14:36:50;;;;;;;2.40;1.30;;;;;;;;;;5072285;28;20448;-59
2022/10/06 14:39:17;;;;;;;3.80;1.20;;;;;;;;;;5072322;28;20483;-59
2022/10/06 14:41:44;;;;;;;1.90;1.30;;;;;;;;;;5072283;28;20497;-59
2022/10/06 14:44:14;;;;;;;3.30;1.00;;;;;;;;;;5072051;28;20475;-59
2022/10/06 14:46:42;;;;;;;2.87;0.90;;;;;;;;;;5072013;28;20475;-59
2022/10/06 14:49:10;;;;;;;2.07;1.00;;;;;;;;;;5072289;28;20509;-59
2022/10/06 14:51:38;;;;;;;4.63;1.07;;;;;;;;;;5072156;28;20458;-59
2022/10/06 14:54:06;;;;;;;2.23;1.20;;;;;;;;;;5072196;28;20538;-59
2022/10/06 14:56:35;;;;;;;1.50;0.90;;;;;;;;;;5075775;28;20884;-59
2022/10/06 14:59:04;;;;;;;4.40;1.07;;;;;;;;;;5075681;28;20451;-58
2022/10/06 15:01:33;;;;;;;3.20;1.10;;;;;;;;;;5075451;28;20462;-58
2022/10/06 15:04:01;;;;;;;3.20;1.30;;;;;;;;;;5075670;28;20551;-59
2022/10/06 15:09:13;;;;;;;5.70;1.57;;;;;;;;;;5075527;28;20498;-59
2022/10/06 15:11:40;;;;;;;4.00;1.50;;;;;;;;;;5075226;28;20454;-59